sensor_id;sensor_type;location;lat;lon;timestamp;pressure;altitude;pressure_sealevel;temperature;humidity
35489;BME280;21602;55.670;37.578;2023-04-12T00:00:40;99350.44;;;11.72;42.79
35489;BME280;21602;55.670;37.578;2023-04-12T00:03:06;99345.00;;;11.67;42.65
35489;BME280;21602;55.670;37.578;2023-04-12T00:05:33;99341.50;;;11.67;42.67
35489;BME280;21602;55.670;37.578;2023-04-12T00:07:59;99340.72;;;11.66;42.74
35489;BME280;21602;55.670;37.578;2023-04-12T00:10:27;99339.66;;;11.67;42.71
35489;BME280;21602;55.670;37.578;2023-04-12T00:12:53;99342.31;;;11.67;42.86
35489;BME280;21602;55.670;37.578;2023-04-12T00:15:19;99337.78;;;11.68;42.84
35489;BME280;21602;55.670;37.578;2023-04-12T00:17:45;99344.53;;;11.70;42.93
35489;BME280;21602;55.670;37.578;2023-04-12T00:20:11;99341.84;;;11.70;42.60
35489;BME280;21602;55.670;37.578;2023-04-12T00:22:39;99343.72;;;11.70;42.80
35489;BME280;21602;55.670;37.578;2023-04-12T00:25:06;99341.28;;;11.68;42.97
35489;BME280;21602;55.670;37.578;2023-04-12T00:27:32;99345.81;;;11.68;43.19
35489;BME280;21602;55.670;37.578;2023-04-12T00:29:58;99351.16;;;11.68;42.80
35489;BME280;21602;55.670;37.578;2023-04-12T00:32:23;99346.88;;;11.67;42.65
35489;BME280;21602;55.670;37.578;2023-04-12T00:34:50;99344.78;;;11.69;42.94
35489;BME280;21602;55.670;37.578;2023-04-12T00:37:19;99347.44;;;11.69;42.65
35489;BME280;21602;55.670;37.578;2023-04-12T00:39:45;99346.06;;;11.66;42.77
35489;BME280;21602;55.670;37.578;2023-04-12T00:42:11;99345.50;;;11.64;42.92
35489;BME280;21602;55.670;37.578;2023-04-12T00:44:37;99345.16;;;11.61;42.82
35489;BME280;21602;55.670;37.578;2023-04-12T00:47:04;99349.69;;;11.60;42.69
35489;BME280;21602;55.670;37.578;2023-04-12T00:49:33;99345.72;;;11.63;43.26
35489;BME280;21602;55.670;37.578;2023-04-12T00:52:00;99343.63;;;11.65;42.92
35489;BME280;21602;55.670;37.578;2023-04-12T00:54:30;99342.81;;;11.64;43.11
35489;BME280;21602;55.670;37.578;2023-04-12T00:57:00;99343.28;;;11.61;43.06
35489;BME280;21602;55.670;37.578;2023-04-12T00:59:26;99346.44;;;11.58;42.90
35489;BME280;21602;55.670;37.578;2023-04-12T01:01:56;99341.09;;;11.58;42.97
35489;BME280;21602;55.670;37.578;2023-04-12T01:04:23;99345.41;;;11.59;43.21
35489;BME280;21602;55.670;37.578;2023-04-12T01:07:09;99336.88;;;11.62;43.02
35489;BME280;21602;55.670;37.578;2023-04-12T01:15:15;99331.53;;;11.45;43.31
35489;BME280;21602;55.670;37.578;2023-04-12T01:17:55;99331.03;;;11.48;43.41
35489;BME280;21602;55.670;37.578;2023-04-12T01:20:28;99332.31;;;11.46;43.09
35489;BME280;21602;55.670;37.578;2023-04-12T01:23:16;99328.03;;;11.45;43.07
35489;BME280;21602;55.670;37.578;2023-04-12T01:28:46;99324.22;;;11.41;43.38
35489;BME280;21602;55.670;37.578;2023-04-12T01:31:14;99317.25;;;11.40;43.16
35489;BME280;21602;55.670;37.578;2023-04-12T01:33:44;99317.25;;;11.40;43.51
35489;BME280;21602;55.670;37.578;2023-04-12T01:36:14;99320.97;;;11.39;43.52
35489;BME280;21602;55.670;37.578;2023-04-12T01:38:41;99315.06;;;11.37;43.56
35489;BME280;21602;55.670;37.578;2023-04-12T01:41:09;99318.78;;;11.36;43.27
35489;BME280;21602;55.670;37.578;2023-04-12T01:43:43;99324.34;;;11.34;43.67
35489;BME280;21602;55.670;37.578;2023-04-12T01:46:12;99321.91;;;11.33;43.66
35489;BME280;21602;55.670;37.578;2023-04-12T01:48:40;99313.09;;;11.32;43.56
35489;BME280;21602;55.670;37.578;2023-04-12T01:54:05;99315.44;;;11.28;43.72
35489;BME280;21602;55.670;37.578;2023-04-12T01:56:39;99318.09;;;11.28;43.71
35489;BME280;21602;55.670;37.578;2023-04-12T01:59:06;99319.16;;;11.27;43.75
35489;BME280;21602;55.670;37.578;2023-04-12T02:01:33;99310.56;;;11.25;43.56
35489;BME280;21602;55.670;37.578;2023-04-12T02:04:00;99306.75;;;11.21;43.61
35489;BME280;21602;55.670;37.578;2023-04-12T02:06:26;99310.94;;;11.17;43.71
35489;BME280;21602;55.670;37.578;2023-04-12T02:09:02;99314.09;;;11.14;43.97
35489;BME280;21602;55.670;37.578;2023-04-12T02:11:29;99300.63;;;11.09;43.81
35489;BME280;21602;55.670;37.578;2023-04-12T02:13:55;99303.56;;;11.08;43.70
35489;BME280;21602;55.670;37.578;2023-04-12T02:16:21;99300.63;;;11.09;43.91
35489;BME280;21602;55.670;37.578;2023-04-12T02:18:49;99303.31;;;11.09;43.66
35489;BME280;21602;55.670;37.578;2023-04-12T02:21:17;99302.25;;;11.10;43.92
35489;BME280;21602;55.670;37.578;2023-04-12T02:23:43;99299.34;;;11.12;43.77
35489;BME280;21602;55.670;37.578;2023-04-12T02:26:10;99305.00;;;11.15;43.77
35489;BME280;21602;55.670;37.578;2023-04-12T02:28:39;99307.81;;;11.20;43.79
35489;BME280;21602;55.670;37.578;2023-04-12T02:31:08;99308.94;;;11.24;43.98
35489;BME280;21602;55.670;37.578;2023-04-12T02:33:35;99303.94;;;11.28;44.03
35489;BME280;21602;55.670;37.578;2023-04-12T02:36:03;99313.47;;;11.24;44.25
35489;BME280;21602;55.670;37.578;2023-04-12T02:38:29;99309.66;;;11.20;44.09
35489;BME280;21602;55.670;37.578;2023-04-12T02:40:56;99302.34;;;11.15;44.32
35489;BME280;21602;55.670;37.578;2023-04-12T02:43:23;99309.00;;;11.13;44.44
35489;BME280;21602;55.670;37.578;2023-04-12T02:45:57;99306.78;;;11.10;44.38
35489;BME280;21602;55.670;37.578;2023-04-12T02:48:23;99310.75;;;11.07;44.76
35489;BME280;21602;55.670;37.578;2023-04-12T02:50:50;99312.38;;;11.08;44.77
35489;BME280;21602;55.670;37.578;2023-04-12T02:53:20;99313.44;;;11.07;45.11
35489;BME280;21602;55.670;37.578;2023-04-12T02:55:54;99312.75;;;11.00;44.92
35489;BME280;21602;55.670;37.578;2023-04-12T02:58:23;99313.69;;;10.94;45.04
35489;BME280;21602;55.670;37.578;2023-04-12T03:00:52;99312.28;;;10.91;45.38
35489;BME280;21602;55.670;37.578;2023-04-12T03:03:24;99316.25;;;10.89;45.36
35489;BME280;21602;55.670;37.578;2023-04-12T03:05:53;99315.22;;;10.90;45.75
35489;BME280;21602;55.670;37.578;2023-04-12T03:08:20;99317.31;;;10.88;45.68
35489;BME280;21602;55.670;37.578;2023-04-12T03:10:53;99319.19;;;10.87;45.83
35489;BME280;21602;55.670;37.578;2023-04-12T03:13:20;99325.78;;;10.85;45.96
35489;BME280;21602;55.670;37.578;2023-04-12T03:15:54;99322.31;;;10.84;46.04
35489;BME280;21602;55.670;37.578;2023-04-12T03:18:24;99326.59;;;10.85;45.98
35489;BME280;21602;55.670;37.578;2023-04-12T03:20:52;99320.19;;;10.86;46.41
35489;BME280;21602;55.670;37.578;2023-04-12T03:23:18;99320.78;;;10.88;46.16
35489;BME280;21602;55.670;37.578;2023-04-12T03:25:50;99321.84;;;10.87;46.42
35489;BME280;21602;55.670;37.578;2023-04-12T03:28:28;99322.06;;;10.86;46.76
35489;BME280;21602;55.670;37.578;2023-04-12T03:30:54;99325.78;;;10.85;46.93
35489;BME280;21602;55.670;37.578;2023-04-12T03:33:24;99327.41;;;10.86;47.12
35489;BME280;21602;55.670;37.578;2023-04-12T03:35:54;99329.28;;;10.85;47.17
35489;BME280;21602;55.670;37.578;2023-04-12T03:38:20;99331.13;;;10.85;47.29
35489;BME280;21602;55.670;37.578;2023-04-12T03:40:47;99332.75;;;10.86;47.35
35489;BME280;21602;55.670;37.578;2023-04-12T03:43:16;99332.75;;;10.86;47.39
35489;BME280;21602;55.670;37.578;2023-04-12T03:45:42;99326.94;;;10.89;47.54
35489;BME280;21602;55.670;37.578;2023-04-12T03:48:07;99340.88;;;10.91;47.87
35489;BME280;21602;55.670;37.578;2023-04-12T03:50:40;99331.22;;;10.90;47.63
35489;BME280;21602;55.670;37.578;2023-04-12T03:53:14;99339.25;;;10.90;47.63
35489;BME280;21602;55.670;37.578;2023-04-12T03:55:43;99338.19;;;10.91;47.85
35489;BME280;21602;55.670;37.578;2023-04-12T03:58:09;99335.88;;;10.94;47.82
35489;BME280;21602;55.670;37.578;2023-04-12T04:00:41;99338.63;;;10.99;47.61
35489;BME280;21602;55.670;37.578;2023-04-12T04:03:07;99340.59;;;11.04;47.63
35489;BME280;21602;55.670;37.578;2023-04-12T04:05:48;99336.16;;;11.10;47.73
35489;BME280;21602;55.670;37.578;2023-04-12T04:08:18;99337.06;;;11.15;47.59
35489;BME280;21602;55.670;37.578;2023-04-12T04:10:53;99343.00;;;11.17;47.35
35489;BME280;21602;55.670;37.578;2023-04-12T04:13:23;99345.22;;;11.20;47.31
35489;BME280;21602;55.670;37.578;2023-04-12T04:16:04;99345.53;;;11.24;47.82
35489;BME280;21602;55.670;37.578;2023-04-12T04:18:31;99341.59;;;11.26;47.77
35489;BME280;21602;55.670;37.578;2023-04-12T04:20:59;99345.72;;;11.34;47.39
35489;BME280;21602;55.670;37.578;2023-04-12T04:23:26;99342.94;;;11.41;47.48
35489;BME280;21602;55.670;37.578;2023-04-12T04:25:58;99350.31;;;11.50;47.15
35489;BME280;21602;55.670;37.578;2023-04-12T04:28:24;99345.88;;;11.56;46.99
35489;BME280;21602;55.670;37.578;2023-04-12T04:30:50;99339.81;;;11.61;46.65
35489;BME280;21602;55.670;37.578;2023-04-12T04:33:22;99343.88;;;11.63;46.53
35489;BME280;21602;55.670;37.578;2023-04-12T04:35:48;99347.19;;;11.70;46.51
35489;BME280;21602;55.670;37.578;2023-04-12T04:38:34;99351.56;;;11.76;46.54
35489;BME280;21602;55.670;37.578;2023-04-12T04:41:10;99348.91;;;11.76;45.89
35489;BME280;21602;55.670;37.578;2023-04-12T04:43:54;99353.53;;;11.81;46.35
35489;BME280;21602;55.670;37.578;2023-04-12T04:46:22;99345.41;;;11.88;46.27
35489;BME280;21602;55.670;37.578;2023-04-12T04:48:49;99347.19;;;11.99;47.71
35489;BME280;21602;55.670;37.578;2023-04-12T04:51:17;99347.13;;;12.11;45.36
35489;BME280;21602;55.670;37.578;2023-04-12T04:53:44;99347.66;;;12.29;49.18
35489;BME280;21602;55.670;37.578;2023-04-12T04:56:12;99348.31;;;12.53;47.50
35489;BME280;21602;55.670;37.578;2023-04-12T04:58:39;99352.59;;;12.76;47.87
35489;BME280;21602;55.670;37.578;2023-04-12T05:01:06;99350.69;;;12.94;45.36
35489;BME280;21602;55.670;37.578;2023-04-12T05:03:33;99351.34;;;13.01;46.02
35489;BME280;21602;55.670;37.578;2023-04-12T05:06:00;99353.13;;;13.17;47.18
35489;BME280;21602;55.670;37.578;2023-04-12T05:08:29;99348.34;;;13.41;45.15
35489;BME280;21602;55.670;37.578;2023-04-12T05:10:55;99355.19;;;13.54;45.48
35489;BME280;21602;55.670;37.578;2023-04-12T05:13:24;99353.91;;;13.62;45.72
35489;BME280;21602;55.670;37.578;2023-04-12T05:15:50;99347.28;;;13.69;45.24
35489;BME280;21602;55.670;37.578;2023-04-12T05:18:16;99353.31;;;13.81;44.88
35489;BME280;21602;55.670;37.578;2023-04-12T05:20:42;99354.78;;;13.99;44.88
35489;BME280;21602;55.670;37.578;2023-04-12T05:23:08;99350.56;;;14.08;44.53
35489;BME280;21602;55.670;37.578;2023-04-12T05:25:34;99356.78;;;14.14;42.92
35489;BME280;21602;55.670;37.578;2023-04-12T05:28:10;99345.22;;;14.08;43.03
35489;BME280;21602;55.670;37.578;2023-04-12T05:30:39;99354.06;;;14.09;42.20
35489;BME280;21602;55.670;37.578;2023-04-12T05:33:06;99347.13;;;14.13;41.47
35489;BME280;21602;55.670;37.578;2023-04-12T05:35:35;99352.03;;;14.21;41.82
35489;BME280;21602;55.670;37.578;2023-04-12T05:38:01;99351.00;;;14.27;41.44
35489;BME280;21602;55.670;37.578;2023-04-12T05:40:28;99349.69;;;14.30;41.20
35489;BME280;21602;55.670;37.578;2023-04-12T05:42:57;99353.19;;;14.30;40.90
35489;BME280;21602;55.670;37.578;2023-04-12T05:45:24;99347.28;;;14.33;41.19
35489;BME280;21602;55.670;37.578;2023-04-12T05:47:52;99356.22;;;14.44;42.67
35489;BME280;21602;55.670;37.578;2023-04-12T05:50:18;99348.81;;;14.62;42.07
35489;BME280;21602;55.670;37.578;2023-04-12T05:52:45;99354.56;;;14.80;42.47
35489;BME280;21602;55.670;37.578;2023-04-12T05:55:14;99354.09;;;14.89;41.26
35489;BME280;21602;55.670;37.578;2023-04-12T05:57:42;99354.44;;;15.07;40.81
35489;BME280;21602;55.670;37.578;2023-04-12T06:00:09;99349.66;;;15.20;41.49
35489;BME280;21602;55.670;37.578;2023-04-12T06:02:39;99353.16;;;15.20;42.41
35489;BME280;21602;55.670;37.578;2023-04-12T06:05:06;99352.00;;;15.01;40.76
35489;BME280;21602;55.670;37.578;2023-04-12T06:07:33;99355.16;;;14.88;39.56
35489;BME280;21602;55.670;37.578;2023-04-12T06:09:59;99355.69;;;14.84;41.14
35489;BME280;21602;55.670;37.578;2023-04-12T06:12:26;99356.81;;;14.99;39.47
35489;BME280;21602;55.670;37.578;2023-04-12T06:14:52;99352.47;;;14.88;39.59
35489;BME280;21602;55.670;37.578;2023-04-12T06:17:18;99353.25;;;14.83;39.02
35489;BME280;21602;55.670;37.578;2023-04-12T06:19:43;99349.69;;;14.67;38.01
35489;BME280;21602;55.670;37.578;2023-04-12T06:22:09;99350.22;;;14.69;38.52
35489;BME280;21602;55.670;37.578;2023-04-12T06:24:37;99348.81;;;15.14;38.82
35489;BME280;21602;55.670;37.578;2023-04-12T06:27:03;99349.72;;;15.40;38.26
35489;BME280;21602;55.670;37.578;2023-04-12T06:29:30;99351.63;;;15.50;37.72
35489;BME280;21602;55.670;37.578;2023-04-12T06:31:57;99345.19;;;15.61;39.02
35489;BME280;21602;55.670;37.578;2023-04-12T06:34:22;99340.91;;;15.65;37.36
35489;BME280;21602;55.670;37.578;2023-04-12T06:36:50;99341.38;;;15.47;36.90
35489;BME280;21602;55.670;37.578;2023-04-12T06:39:16;99345.94;;;15.36;36.70
35489;BME280;21602;55.670;37.578;2023-04-12T06:41:42;99338.94;;;15.35;36.65
35489;BME280;21602;55.670;37.578;2023-04-12T06:44:19;99345.66;;;15.37;36.81
35489;BME280;21602;55.670;37.578;2023-04-12T06:46:48;99336.00;;;15.47;39.07
35489;BME280;21602;55.670;37.578;2023-04-12T06:49:14;99348.69;;;15.61;36.83
35489;BME280;21602;55.670;37.578;2023-04-12T06:51:43;99340.91;;;15.65;37.81
35489;BME280;21602;55.670;37.578;2023-04-12T06:54:09;99342.56;;;15.92;36.85
35489;BME280;21602;55.670;37.578;2023-04-12T06:56:36;99341.22;;;15.94;35.91
35489;BME280;21602;55.670;37.578;2023-04-12T06:59:02;99338.28;;;15.96;36.20
35489;BME280;21602;55.670;37.578;2023-04-12T07:01:28;99345.25;;;16.02;36.75
35489;BME280;21602;55.670;37.578;2023-04-12T07:03:54;99347.16;;;16.11;36.29
35489;BME280;21602;55.670;37.578;2023-04-12T07:06:19;99339.34;;;16.20;36.46
35489;BME280;21602;55.670;37.578;2023-04-12T07:08:47;99342.53;;;16.32;37.12
35489;BME280;21602;55.670;37.578;2023-04-12T07:11:13;99345.78;;;16.45;37.03
35489;BME280;21602;55.670;37.578;2023-04-12T07:13:38;99334.44;;;16.53;36.27
35489;BME280;21602;55.670;37.578;2023-04-12T07:16:05;99341.41;;;16.69;36.87
35489;BME280;21602;55.670;37.578;2023-04-12T07:18:31;99346.81;;;16.69;35.91
35489;BME280;21602;55.670;37.578;2023-04-12T07:20:57;99346.81;;;16.69;35.82
35489;BME280;21602;55.670;37.578;2023-04-12T07:23:23;99345.72;;;16.75;35.21
35489;BME280;21602;55.670;37.578;2023-04-12T07:25:50;99344.66;;;16.81;35.29
35489;BME280;21602;55.670;37.578;2023-04-12T07:28:18;99348.41;;;16.85;35.38
35489;BME280;21602;55.670;37.578;2023-04-12T07:30:44;99341.38;;;16.84;35.37
35489;BME280;21602;55.670;37.578;2023-04-12T07:33:10;99342.75;;;16.87;34.68
35489;BME280;21602;55.670;37.578;2023-04-12T07:35:36;99339.75;;;16.88;34.44
35489;BME280;21602;55.670;37.578;2023-04-12T07:38:04;99340.34;;;16.85;35.05
35489;BME280;21602;55.670;37.578;2023-04-12T07:40:31;99331.41;;;16.85;34.62
35489;BME280;21602;55.670;37.578;2023-04-12T07:42:57;99337.06;;;16.88;34.26
35489;BME280;21602;55.670;37.578;2023-04-12T07:45:23;99340.53;;;16.94;34.12
35489;BME280;21602;55.670;37.578;2023-04-12T07:47:49;99337.03;;;16.99;33.98
35489;BME280;21602;55.670;37.578;2023-04-12T07:50:15;99337.88;;;16.84;34.31
35489;BME280;21602;55.670;37.578;2023-04-12T07:52:41;99332.75;;;16.87;34.08
35489;BME280;21602;55.670;37.578;2023-04-12T07:55:07;99337.03;;;16.94;33.98
35489;BME280;21602;55.670;37.578;2023-04-12T07:57:34;99330.59;;;16.84;34.11
35489;BME280;21602;55.670;37.578;2023-04-12T08:00:00;99333.88;;;16.81;34.47
35489;BME280;21602;55.670;37.578;2023-04-12T08:02:26;99333.88;;;16.81;34.39
35489;BME280;21602;55.670;37.578;2023-04-12T08:04:55;99328.16;;;16.88;33.84
35489;BME280;21602;55.670;37.578;2023-04-12T08:07:36;99327.91;;;16.84;34.25
35489;BME280;21602;55.670;37.578;2023-04-12T08:10:09;99324.13;;;16.91;33.98
35489;BME280;21602;55.670;37.578;2023-04-12T08:12:34;99322.72;;;17.03;33.73
35489;BME280;21602;55.670;37.578;2023-04-12T08:15:00;99323.28;;;17.00;34.43
35489;BME280;21602;55.670;37.578;2023-04-12T08:17:27;99321.91;;;17.03;33.79
35489;BME280;21602;55.670;37.578;2023-04-12T08:19:53;99322.69;;;17.08;33.38
35489;BME280;21602;55.670;37.578;2023-04-12T08:22:18;99319.94;;;17.24;33.32
35489;BME280;21602;55.670;37.578;2023-04-12T08:24:44;99313.66;;;17.38;33.14
35489;BME280;21602;55.670;37.578;2023-04-12T08:27:10;99310.66;;;17.40;33.71
35489;BME280;21602;55.670;37.578;2023-04-12T08:29:38;99311.50;;;17.35;33.38
35489;BME280;21602;55.670;37.578;2023-04-12T08:32:10;99310.69;;;17.35;33.02
35489;BME280;21602;55.670;37.578;2023-04-12T08:34:40;99306.06;;;17.40;32.90
35489;BME280;21602;55.670;37.578;2023-04-12T08:37:09;99300.16;;;17.38;32.98
35489;BME280;21602;55.670;37.578;2023-04-12T08:39:40;99307.72;;;17.36;34.38
35489;BME280;21602;55.670;37.578;2023-04-12T08:42:06;99309.34;;;17.32;33.00
35489;BME280;21602;55.670;37.578;2023-04-12T08:44:34;99309.66;;;17.26;33.16
35489;BME280;21602;55.670;37.578;2023-04-12T08:47:33;99299.38;;;17.28;33.90
35489;BME280;21602;55.670;37.578;2023-04-12T08:50:06;99308.22;;;17.44;33.59
35489;BME280;21602;55.670;37.578;2023-04-12T08:52:54;99302.19;;;17.57;32.84
35489;BME280;21602;55.670;37.578;2023-04-12T08:55:26;99303.81;;;17.58;32.87
35489;BME280;21602;55.670;37.578;2023-04-12T08:57:55;99291.63;;;17.60;33.35
35489;BME280;21602;55.670;37.578;2023-04-12T09:00:21;99299.50;;;17.57;33.74
35489;BME280;21602;55.670;37.578;2023-04-12T09:02:47;99292.06;;;17.38;32.89
35489;BME280;21602;55.670;37.578;2023-04-12T09:05:14;99296.03;;;17.46;33.50
35489;BME280;21602;55.670;37.578;2023-04-12T09:07:41;99301.94;;;17.53;32.56
35489;BME280;21602;55.670;37.578;2023-04-12T09:10:07;99301.16;;;17.53;32.75
35489;BME280;21602;55.670;37.578;2023-04-12T09:12:34;99289.72;;;17.61;32.38
35489;BME280;21602;55.670;37.578;2023-04-12T09:15:11;99293.00;;;17.58;31.81
35489;BME280;21602;55.670;37.578;2023-04-12T09:17:41;99277.78;;;17.38;32.09
35489;BME280;21602;55.670;37.578;2023-04-12T09:22:46;99283.19;;;17.28;33.22
35489;BME280;21602;55.670;37.578;2023-04-12T09:25:14;99282.03;;;17.44;32.70
35489;BME280;21602;55.670;37.578;2023-04-12T09:27:49;99279.47;;;17.63;32.29
35489;BME280;21602;55.670;37.578;2023-04-12T09:30:25;99271.59;;;17.72;32.32
35489;BME280;21602;55.670;37.578;2023-04-12T09:32:51;99273.47;;;17.76;32.82
35489;BME280;21602;55.670;37.578;2023-04-12T09:35:23;99272.53;;;17.52;31.77
35489;BME280;21602;55.670;37.578;2023-04-12T09:38:06;99263.84;;;17.60;31.43
35489;BME280;21602;55.670;37.578;2023-04-12T09:40:38;99267.03;;;17.67;31.64
35489;BME280;21602;55.670;37.578;2023-04-12T09:43:05;99263.78;;;17.65;31.41
35489;BME280;21602;55.670;37.578;2023-04-12T09:45:35;99261.56;;;17.77;31.36
35489;BME280;21602;55.670;37.578;2023-04-12T09:48:03;99262.53;;;17.91;31.20
35489;BME280;21602;55.670;37.578;2023-04-12T09:50:29;99271.19;;;17.88;31.35
35489;BME280;21602;55.670;37.578;2023-04-12T09:53:00;99256.69;;;17.79;31.83
35489;BME280;21602;55.670;37.578;2023-04-12T09:55:28;99251.25;;;17.84;31.47
35489;BME280;21602;55.670;37.578;2023-04-12T09:58:02;99244.34;;;17.68;31.57
35489;BME280;21602;55.670;37.578;2023-04-12T10:00:30;99239.50;;;17.65;31.70
35489;BME280;21602;55.670;37.578;2023-04-12T10:02:56;99246.50;;;17.71;31.45
35489;BME280;21602;55.670;37.578;2023-04-12T10:05:23;99248.66;;;17.69;32.43
35489;BME280;21602;55.670;37.578;2023-04-12T10:07:50;99246.19;;;17.73;32.15
35489;BME280;21602;55.670;37.578;2023-04-12T10:10:17;99238.66;;;17.70;31.95
35489;BME280;21602;55.670;37.578;2023-04-12T10:12:45;99240.53;;;17.74;32.23
35489;BME280;21602;55.670;37.578;2023-04-12T10:15:12;99241.53;;;17.83;32.00
35489;BME280;21602;55.670;37.578;2023-04-12T10:17:45;99236.69;;;17.85;31.48
35489;BME280;21602;55.670;37.578;2023-04-12T10:20:14;99234.56;;;17.77;31.30
35489;BME280;21602;55.670;37.578;2023-04-12T10:22:45;99229.75;;;17.69;31.12
35489;BME280;21602;55.670;37.578;2023-04-12T10:25:25;99221.13;;;17.67;32.30
35489;BME280;21602;55.670;37.578;2023-04-12T10:27:54;99223.25;;;17.75;32.38
35489;BME280;21602;55.670;37.578;2023-04-12T10:30:31;99223.25;;;17.75;31.91
35489;BME280;21602;55.670;37.578;2023-04-12T10:36:04;99230.34;;;17.66;31.47
35489;BME280;21602;55.670;37.578;2023-04-12T10:38:46;99228.94;;;17.69;31.57
35489;BME280;21602;55.670;37.578;2023-04-12T10:41:17;99230.03;;;17.67;31.31
35489;BME280;21602;55.670;37.578;2023-04-12T10:43:47;99227.00;;;17.79;31.62
35489;BME280;21602;55.670;37.578;2023-04-12T10:49:10;99215.44;;;17.74;31.34
35489;BME280;21602;55.670;37.578;2023-04-12T10:51:37;99206.78;;;17.77;31.80
35489;BME280;21602;55.670;37.578;2023-04-12T10:56:47;99206.47;;;18.07;32.03
35489;BME280;21602;55.670;37.578;2023-04-12T10:59:24;99200.22;;;18.12;31.08
35489;BME280;21602;55.670;37.578;2023-04-12T11:04:31;99192.25;;;17.97;31.31
35489;BME280;21602;55.670;37.578;2023-04-12T11:07:11;99187.56;;;18.07;31.94
35489;BME280;21602;55.670;37.578;2023-04-12T11:09:56;99187.00;;;18.10;32.37
35489;BME280;21602;55.670;37.578;2023-04-12T11:12:26;99173.25;;;18.07;31.31
35489;BME280;21602;55.670;37.578;2023-04-12T11:15:02;99170.44;;;18.17;31.29
35489;BME280;21602;55.670;37.578;2023-04-12T11:17:56;99158.50;;;18.23;30.91
35489;BME280;21602;55.670;37.578;2023-04-12T11:20:22;99150.75;;;18.35;30.59
35489;BME280;21602;55.670;37.578;2023-04-12T11:22:51;99154.50;;;18.39;30.52
35489;BME280;21602;55.670;37.578;2023-04-12T11:25:21;99149.66;;;18.36;30.57
35489;BME280;21602;55.670;37.578;2023-04-12T11:27:49;99144.00;;;18.14;30.88
35489;BME280;21602;55.670;37.578;2023-04-12T11:30:16;99148.25;;;18.20;31.13
35489;BME280;21602;55.670;37.578;2023-04-12T11:32:46;99148.31;;;18.15;30.42
35489;BME280;21602;55.670;37.578;2023-04-12T11:35:14;99147.22;;;18.16;31.69
35489;BME280;21602;55.670;37.578;2023-04-12T11:37:42;99149.34;;;18.19;31.92
35489;BME280;21602;55.670;37.578;2023-04-12T11:40:11;99138.88;;;18.12;31.09
35489;BME280;21602;55.670;37.578;2023-04-12T11:42:46;99149.75;;;18.07;31.26
35489;BME280;21602;55.670;37.578;2023-04-12T11:45:18;99150.41;;;18.18;31.20
35489;BME280;21602;55.670;37.578;2023-04-12T11:47:44;99138.97;;;18.26;30.60
35489;BME280;21602;55.670;37.578;2023-04-12T11:50:11;99137.44;;;18.20;31.64
35489;BME280;21602;55.670;37.578;2023-04-12T11:52:37;99138.59;;;18.14;30.80
35489;BME280;21602;55.670;37.578;2023-04-12T11:55:04;99134.81;;;18.15;30.94
35489;BME280;21602;55.670;37.578;2023-04-12T11:57:32;99135.59;;;18.15;30.90
35489;BME280;21602;55.670;37.578;2023-04-12T12:00:00;99126.97;;;18.13;30.60
35489;BME280;21602;55.670;37.578;2023-04-12T12:02:27;99128.25;;;18.21;30.83
35489;BME280;21602;55.670;37.578;2023-04-12T12:04:56;99126.75;;;18.34;30.84
35489;BME280;21602;55.670;37.578;2023-04-12T12:07:22;99122.63;;;18.36;29.92
35489;BME280;21602;55.670;37.578;2023-04-12T12:09:49;99121.66;;;18.27;30.70
35489;BME280;21602;55.670;37.578;2023-04-12T12:12:17;99119.81;;;18.28;30.33
35489;BME280;21602;55.670;37.578;2023-04-12T12:14:44;99120.00;;;18.31;30.69
35489;BME280;21602;55.670;37.578;2023-04-12T12:17:17;99113.59;;;18.46;30.08
35489;BME280;21602;55.670;37.578;2023-04-12T12:19:47;99113.59;;;18.65;30.08
35489;BME280;21602;55.670;37.578;2023-04-12T12:22:22;99114.13;;;18.67;29.86
35489;BME280;21602;55.670;37.578;2023-04-12T12:24:57;99103.88;;;18.64;31.30
35489;BME280;21602;55.670;37.578;2023-04-12T12:29:55;99094.78;;;18.79;30.00
35489;BME280;21602;55.670;37.578;2023-04-12T12:32:21;99092.50;;;18.67;29.39
35489;BME280;21602;55.670;37.578;2023-04-12T12:35:00;99091.41;;;18.68;29.90
35489;BME280;21602;55.670;37.578;2023-04-12T12:37:27;99083.25;;;18.73;29.48
35489;BME280;21602;55.670;37.578;2023-04-12T12:40:07;99085.56;;;18.80;28.92
35489;BME280;21602;55.670;37.578;2023-04-12T12:45:11;99074.59;;;18.90;29.06
35489;BME280;21602;55.670;37.578;2023-04-12T12:48:01;99078.47;;;18.65;29.21
35489;BME280;21602;55.670;37.578;2023-04-12T12:50:29;99078.59;;;18.55;29.48
35489;BME280;21602;55.670;37.578;2023-04-12T12:52:58;99072.84;;;18.42;30.19
35489;BME280;21602;55.670;37.578;2023-04-12T12:55:37;99071.88;;;18.33;30.06
35489;BME280;21602;55.670;37.578;2023-04-12T12:58:03;99075.91;;;18.36;29.64
35489;BME280;21602;55.670;37.578;2023-04-12T13:00:29;99065.25;;;18.45;30.21
35489;BME280;21602;55.670;37.578;2023-04-12T13:02:58;99058.09;;;18.54;29.50
35489;BME280;21602;55.670;37.578;2023-04-12T13:05:24;99059.53;;;18.65;29.04
35489;BME280;21602;55.670;37.578;2023-04-12T13:07:50;99058.41;;;18.71;29.57
35489;BME280;21602;55.670;37.578;2023-04-12T13:10:19;99057.44;;;18.81;29.25
35489;BME280;21602;55.670;37.578;2023-04-12T13:12:46;99065.03;;;18.79;29.01
35489;BME280;21602;55.670;37.578;2023-04-12T13:15:18;99054.94;;;18.84;28.99
35489;BME280;21602;55.670;37.578;2023-04-12T13:17:44;99053.84;;;18.85;28.74
35489;BME280;21602;55.670;37.578;2023-04-12T13:20:13;99041.28;;;18.95;28.96
35489;BME280;21602;55.670;37.578;2023-04-12T13:22:45;99049.09;;;18.77;28.09
35489;BME280;21602;55.670;37.578;2023-04-12T13:25:11;99053.84;;;18.66;29.35
35489;BME280;21602;55.670;37.578;2023-04-12T13:27:36;99057.09;;;18.68;28.97
35489;BME280;21602;55.670;37.578;2023-04-12T13:30:04;99052.28;;;18.60;27.83